Bd5 — BD5 — position and weather

sailwx.info

Track history (hours):
 
Tides and Currents Weather Stations Pressure Air Temp Water Temp Dewpoint Dewpoint Depression Visibility Wind Speed Wind Dir Waves Ship Positions

Bd5

Last reported at 2017-Sep-21 19:57 UTC. Time now 2017-Sep-25 00:36 UTC.
Position N 38°52' W 076°59'.

Length 10 m.

Type: Military. MMSI: 369970465.

Date/timePositionNaut miles runAvg speedWind from/ knotsBaromVisibWave heightAir tempDewpointWater temp
2017-Sep-21 19:57N 38°52' W 076°59'1 2.1
2017-Sep-21 19:30N 38°52' W 077°00'1 1.5
2017-Sep-21 19:00N 38°51' W 077°01'1 2.8
2017-Sep-21 18:29N 38°52' W 076°60'0 0.4
2017-Sep-21 18:00N 38°52' W 076°59'0 0.0
2017-Sep-21 17:27N 38°52' W 076°59'0 0.0
2017-Sep-21 15:59N 38°52' W 076°59'2 4.1
2017-Sep-21 15:30N 38°51' W 077°01'1 1.9
2017-Sep-21 15:00N 38°52' W 077°02'1 1.2
2017-Sep-21 14:30N 38°53' W 077°01'1 1.5
2017-Sep-21 14:00N 38°52' W 077°01'1 2.2
2017-Sep-21 13:29N 38°52' W 076°60'0 0.5
2017-Sep-21 13:00N 38°52' W 076°60'0 0.2
2017-Sep-21 12:29N 38°52' W 076°60'0 0.6
2017-Sep-21 12:00N 38°52' W 076°59'0 0.0
2017-Sep-20 20:03N 38°52' W 076°59'0 1.6
2017-Sep-20 19:59N 38°52' W 076°59'1 1.5
2017-Sep-20 19:29N 38°52' W 077°00'0 0.7
2017-Sep-20 18:59N 38°52' W 077°00'1 2.0
2017-Sep-20 18:28N 38°52' W 076°59'0 0.0
2017-Sep-20 16:27N 38°52' W 076°59'2 3.4
2017-Sep-20 15:59N 38°52' W 077°01'1 1.3
2017-Sep-20 15:30N 38°52' W 077°01'3 5.9
2017-Sep-20 15:00N 38°50' W 077°02'  
2017-Sep-14 15:04N 38°46' W 077°02'1 9.0
2017-Sep-14 15:00N 38°47' W 077°02'4 8.3
2017-Sep-14 14:29N 38°51' W 077°01'2 4.2
2017-Sep-14 13:58N 38°52' W 076°59'1 2.1
2017-Sep-14 13:30N 38°53' W 076°58'0 0.1
2017-Sep-14 12:59N 38°53' W 076°58'1 2.6
2017-Sep-14 12:30N 38°52' W 076°60'1 1.6
2017-Sep-14 12:00N 38°52' W 077°01'1 2.6
2017-Sep-14 11:30N 38°52' W 076°59'0 0.0
2017-Sep-13 19:57N 38°52' W 076°59'1 1.2
2017-Sep-13 19:30N 38°52' W 077°00'2 3.8
2017-Sep-13 18:59N 38°53' W 077°02'1 2.6
2017-Sep-13 18:29N 38°51' W 077°02'2 3.9
2017-Sep-13 17:59N 38°52' W 076°59'0 0.0
2017-Sep-13 16:18N 38°52' W 076°59'1 4.3
2017-Sep-13 15:58N 38°52' W 077°01'3 7.0
2017-Sep-13 15:30N 38°48' W 077°02'0 0.8
2017-Sep-13 15:00N 38°49' W 077°02'3 5.5
2017-Sep-13 14:29N 38°52' W 077°01'1 2.2
2017-Sep-13 14:00N 38°53' W 077°02'1 2.4
2017-Sep-13 13:29N 38°52' W 077°00'1 1.3
2017-Sep-13 12:59N 38°52' W 077°01'1 2.8
2017-Sep-13 12:30N 38°52' W 076°59'0 0.0
2017-Sep-13 12:00N 38°52' W 076°59'0 0.0
2017-Sep-11 20:18N 38°52' W 076°59'1 3.7
2017-Sep-11 20:01N 38°52' W 077°00'  
Track history (hours):
 
Tides and Currents Weather Stations Pressure Air Temp Water Temp Dewpoint Dewpoint Depression Visibility Wind Speed Wind Dir Waves Ship Positions

Bd5

Last reported at 2017-Sep-21 19:57 UTC. Time now 2017-Sep-25 00:36 UTC.
Position N 38°52' W 076°59'.

Length 10 m.

Type: Military. MMSI: 369970465.

Date/timePositionNaut miles runAvg speedWind from/ knotsBaromVisibWave heightAir tempDewpointWater temp
2017-Sep-21 19:57N 38°52' W 076°59'1 2.1
2017-Sep-21 19:30N 38°52' W 077°00'1 1.5
2017-Sep-21 19:00N 38°51' W 077°01'1 2.8
2017-Sep-21 18:29N 38°52' W 076°60'0 0.4
2017-Sep-21 18:00N 38°52' W 076°59'0 0.0
2017-Sep-21 17:27N 38°52' W 076°59'0 0.0
2017-Sep-21 15:59N 38°52' W 076°59'2 4.1
2017-Sep-21 15:30N 38°51' W 077°01'1 1.9
2017-Sep-21 15:00N 38°52' W 077°02'1 1.2
2017-Sep-21 14:30N 38°53' W 077°01'1 1.5
2017-Sep-21 14:00N 38°52' W 077°01'1 2.2
2017-Sep-21 13:29N 38°52' W 076°60'0 0.5
2017-Sep-21 13:00N 38°52' W 076°60'0 0.2
2017-Sep-21 12:29N 38°52' W 076°60'0 0.6
2017-Sep-21 12:00N 38°52' W 076°59'0 0.0
2017-Sep-20 20:03N 38°52' W 076°59'0 1.6
2017-Sep-20 19:59N 38°52' W 076°59'1 1.5
2017-Sep-20 19:29N 38°52' W 077°00'0 0.7
2017-Sep-20 18:59N 38°52' W 077°00'1 2.0
2017-Sep-20 18:28N 38°52' W 076°59'0 0.0
2017-Sep-20 16:27N 38°52' W 076°59'2 3.4
2017-Sep-20 15:59N 38°52' W 077°01'1 1.3
2017-Sep-20 15:30N 38°52' W 077°01'3 5.9
2017-Sep-20 15:00N 38°50' W 077°02'  
2017-Sep-14 15:04N 38°46' W 077°02'1 9.0
2017-Sep-14 15:00N 38°47' W 077°02'4 8.3
2017-Sep-14 14:29N 38°51' W 077°01'2 4.2
2017-Sep-14 13:58N 38°52' W 076°59'1 2.1
2017-Sep-14 13:30N 38°53' W 076°58'0 0.1
2017-Sep-14 12:59N 38°53' W 076°58'1 2.6
2017-Sep-14 12:30N 38°52' W 076°60'1 1.6
2017-Sep-14 12:00N 38°52' W 077°01'1 2.6
2017-Sep-14 11:30N 38°52' W 076°59'0 0.0
2017-Sep-13 19:57N 38°52' W 076°59'1 1.2
2017-Sep-13 19:30N 38°52' W 077°00'2 3.8
2017-Sep-13 18:59N 38°53' W 077°02'1 2.6
2017-Sep-13 18:29N 38°51' W 077°02'2 3.9
2017-Sep-13 17:59N 38°52' W 076°59'0 0.0
2017-Sep-13 16:18N 38°52' W 076°59'1 4.3
2017-Sep-13 15:58N 38°52' W 077°01'3 7.0
2017-Sep-13 15:30N 38°48' W 077°02'0 0.8
2017-Sep-13 15:00N 38°49' W 077°02'3 5.5
2017-Sep-13 14:29N 38°52' W 077°01'1 2.2
2017-Sep-13 14:00N 38°53' W 077°02'1 2.4
2017-Sep-13 13:29N 38°52' W 077°00'1 1.3
2017-Sep-13 12:59N 38°52' W 077°01'1 2.8
2017-Sep-13 12:30N 38°52' W 076°59'0 0.0
2017-Sep-13 12:00N 38°52' W 076°59'0 0.0
2017-Sep-11 20:18N 38°52' W 076°59'1 3.7
2017-Sep-11 20:01N 38°52' W 077°00'  

Dump ship's entire track history